Friday, November 21, 2014, 1:48 PM EST

KIPT, Williamsport-lycoming County

Location: Montoursville, PA, United States Lat: 41.25
Local Time: 1:48 PM EST (18:48 GMT) Lon: -76.917
Time Zone: US/Eastern Elev: 528 ft

Show me the last for .
Show Decoded

2014-11-21 12:54 METAR KIPT 211754Z 29010G19KT 10SM FEW050 01/M13 A3036 RMK AO2 SLP287 T00111128
                 10017 21056 51005 =
2014-11-21 11:54 METAR KIPT 211654Z 30009G18KT 10SM SCT050 01/M12 A3036 RMK AO2 SLP287 T00061122
                 =
2014-11-21 10:54 METAR KIPT 211554Z 28016G24KT 10SM SCT045 M01/M13 A3036 RMK AO2 SLP288 T10061128
                 =
2014-11-21 09:54 METAR KIPT 211454Z 28012KT 10SM SCT046 M03/M13 A3034 RMK AO2 SLP283 T10281128
                 51034 =
2014-11-21 08:54 METAR KIPT 211354Z 26011KT 10SM CLR M03/M12 A3032 RMK AO2 SLP275 T10331122 =
2014-11-21 07:54 METAR KIPT 211254Z 26008KT 10SM CLR M05/M12 A3029 RMK AO2 SLP265 T10501122 =
2014-11-21 06:54 METAR KIPT 211154Z 28008KT 10SM CLR M05/M13 A3024 RMK AO2 SLP248 T10501128 11039
                 21056 51037 =
2014-11-21 05:54 METAR KIPT 211054Z AUTO 27009KT 10SM CLR M05/M13 A3020 RMK AO2 SLP235 T10501128
                 =
2014-11-21 04:54 METAR KIPT 210954Z AUTO 27004KT 10SM SCT046 M05/M12 A3017 =
2014-11-21 03:54 METAR KIPT 210854Z AUTO 27008KT 10SM SCT044 M04/M12 A3013 RMK AO2 SLP210
                 T10441122 51021 =
2014-11-21 02:54 METAR KIPT 210754Z AUTO 28005KT 10SM FEW045 M04/M12 A3012 RMK AO2 SLP205
                 T10441122 =
2014-11-21 01:54 METAR KIPT 210654Z AUTO 26009KT 10SM CLR M04/M12 A3009 RMK AO2 SLP194 T10441122
                 =
2014-11-21 00:54 METAR KIPT 210554Z AUTO 27008KT 10SM CLR M04/M12 A3007 RMK AO2 SLP188 T10391122
                 11022 21044 51016 =
2014-11-20 23:54 METAR KIPT 210454Z AUTO 27009KT 10SM CLR M04/M13 A3006 RMK AO2 SLP184 T10391128
                 400221044 =
2014-11-20 22:54 METAR KIPT 210354Z AUTO 28006KT 10SM CLR M03/M13 A3004 =
2014-11-20 21:54 METAR KIPT 210254Z 27008KT 10SM CLR M03/M13 A3002 RMK AO2 SLP171 T10331128 51008
                 =
2014-11-20 20:54 METAR KIPT 210154Z 28008KT 10SM CLR M03/M13 A3002 =
2014-11-20 19:54 METAR KIPT 210054Z 28008KT 10SM CLR M03/M13 A3002 RMK AO2 SLP171 T10281133 =
2014-11-20 18:54 METAR KIPT 202354Z 28015G24KT 10SM CLR M02/M14 A3000 =
2014-11-20 17:54 METAR KIPT 202254Z 26017G25KT 10SM CLR M02/M14 A2997 RMK AO2 PK WND 26028/2237
                 SLP155 T10171139 =
2014-11-20 16:54 METAR KIPT 202154Z 24010KT 10SM FEW055 M01/M13 A2995 RMK AO2 SLP146 T10111128 =
2014-11-20 15:54 METAR KIPT 202054Z 26014G20KT 10SM FEW055 01/M13 A2992 RMK AO2 SLP137 T00061128
                 53007 =
2014-11-20 14:54 METAR KIPT 201954Z 26015G21KT 10SM SCT055 01/M12 A2990 RMK AO2 SLP132 T00111122
                 =
2014-11-20 13:54 METAR KIPT 201854Z 25012G21KT 10SM FEW050 02/M12 A2990 RMK AO2 SLP131 T00171122
                 =

Support USWX by starting your Amazon purchase here.